createdAt,value
2023-01-30T00:02:20.636Z,0.95
2023-01-30T00:05:10.049Z,0.50
2023-01-30T00:07:58.680Z,0.77
2023-01-30T00:10:47.672Z,0.60
2023-01-30T00:13:38.146Z,0.60
2023-01-30T00:16:27.614Z,0.60
2023-01-30T00:19:16.334Z,0.52
2023-01-30T00:22:04.948Z,0.50
2023-01-30T00:24:53.649Z,0.45
2023-01-30T00:27:42.294Z,0.75
2023-01-30T00:30:32.611Z,0.60
2023-01-30T00:33:22.408Z,0.43
2023-01-30T00:36:11.836Z,0.38
2023-01-30T00:39:00.422Z,0.30
2023-01-30T00:42:06.507Z,0.40
2023-01-30T00:45:12.964Z,0.93
2023-01-30T00:48:03.187Z,0.50
2023-01-30T00:50:51.743Z,0.50
2023-01-30T00:53:40.381Z,0.50
2023-01-30T00:56:29.003Z,0.60
2023-01-30T00:59:17.591Z,0.52
2023-01-30T01:02:06.370Z,0.38
2023-01-30T01:04:56.413Z,0.38
2023-01-30T01:07:45.041Z,0.35
2023-01-30T01:10:33.941Z,0.28
2023-01-30T01:13:22.767Z,0.30
2023-01-30T01:16:11.451Z,0.45
2023-01-30T01:19:00.307Z,0.38
2023-01-30T01:21:50.284Z,0.68
2023-01-30T01:24:38.955Z,0.32
2023-01-30T01:27:27.647Z,0.30
2023-01-30T01:30:16.967Z,0.40
2023-01-30T01:33:05.744Z,0.82
2023-01-30T01:35:57.798Z,0.35
2023-01-30T01:38:47.837Z,0.47
2023-01-30T01:41:35.520Z,0.47
2023-01-30T01:44:26.580Z,0.40
2023-01-30T01:47:15.198Z,0.28
2023-01-30T01:50:04.626Z,0.40
2023-01-30T01:52:58.572Z,0.28
2023-01-30T01:55:50.729Z,0.15
2023-01-30T01:58:42.692Z,0.40
2023-01-30T02:01:31.655Z,0.32
2023-01-30T02:04:40.245Z,0.40
2023-01-30T02:07:29.602Z,0.38
2023-01-30T02:10:21.898Z,0.20
2023-01-30T02:13:11.988Z,0.30
2023-01-30T02:16:02.480Z,0.10
2023-01-30T02:18:51.369Z,0.20
2023-01-30T02:21:59.690Z,0.30
2023-01-30T02:25:25.031Z,0.20
2023-01-30T02:28:44.941Z,0.05
2023-01-30T02:31:40.349Z,0.30
2023-01-30T02:34:40.848Z,0.13
2023-01-30T02:37:33.397Z,0.20
2023-01-30T02:40:37.122Z,0.28
2023-01-30T02:43:29.052Z,0.20
2023-01-30T02:46:19.818Z,0.40
2023-01-30T02:49:11.500Z,0.20
2023-01-30T02:52:01.692Z,0.30
2023-01-30T02:54:50.358Z,0.22
2023-01-30T02:57:38.966Z,0.13
2023-01-30T03:00:43.556Z,0.10
2023-01-30T03:03:39.930Z,0.10
2023-01-30T03:06:43.854Z,0.10
2023-01-30T03:09:39.386Z,0.20
2023-01-30T03:12:36.324Z,0.22
2023-01-30T03:15:28.552Z,0.17
2023-01-30T03:18:18.491Z,0.30
2023-01-30T03:21:08.238Z,0.20
2023-01-30T03:23:58.402Z,0.20
2023-01-30T03:26:49.846Z,0.40
2023-01-30T03:29:38.776Z,0.20
2023-01-30T03:32:27.578Z,0.20
2023-01-30T03:35:17.882Z,0.30
2023-01-30T03:38:06.989Z,0.10
2023-01-30T03:40:56.990Z,0.30
2023-01-30T03:43:45.646Z,0.20
2023-01-30T03:46:34.226Z,0.20
2023-01-30T03:49:22.884Z,0.10
2023-01-30T03:52:11.508Z,0.05
2023-01-30T03:55:00.183Z,0.00
2023-01-30T03:57:50.211Z,0.10
2023-01-30T04:00:38.982Z,0.20
2023-01-30T04:03:27.614Z,0.10
2023-01-30T04:06:16.542Z,0.15
2023-01-30T04:09:05.227Z,0.20
2023-01-30T04:11:53.819Z,0.20
2023-01-30T04:14:43.817Z,0.20
2023-01-30T04:17:32.470Z,0.17
2023-01-30T04:20:21.141Z,0.05
2023-01-30T04:23:09.944Z,0.10
2023-01-30T04:25:58.669Z,0.35
2023-01-30T04:28:47.502Z,0.17
2023-01-30T04:31:37.641Z,0.10
2023-01-30T04:34:26.373Z,0.20
2023-01-30T04:37:15.193Z,0.20
2023-01-30T04:40:03.845Z,0.20
2023-01-30T04:42:52.499Z,0.05
2023-01-30T04:45:44.597Z,0.10
2023-01-30T04:48:34.757Z,0.00
2023-01-30T04:51:23.481Z,0.10
2023-01-30T04:54:12.265Z,0.10
2023-01-30T04:57:00.952Z,0.20
2023-01-30T04:59:49.675Z,0.17
2023-01-30T05:02:38.541Z,0.15
2023-01-30T05:05:29.532Z,0.10
2023-01-30T05:08:18.471Z,0.10
2023-01-30T05:11:07.440Z,0.13
2023-01-30T05:13:56.491Z,0.00
2023-01-30T05:16:45.213Z,0.10
2023-01-30T05:19:33.951Z,0.10
2023-01-30T05:22:24.148Z,0.10
2023-01-30T05:25:12.991Z,0.35
2023-01-30T05:28:01.704Z,0.80
2023-01-30T05:30:50.447Z,0.60
2023-01-30T05:33:39.501Z,0.80
2023-01-30T05:36:28.231Z,0.90
2023-01-30T05:39:18.410Z,0.90
2023-01-30T05:42:07.326Z,1.42
2023-01-30T05:44:56.035Z,1.05
2023-01-30T05:47:44.719Z,1.63
2023-01-30T05:50:33.682Z,1.20
2023-01-30T05:53:23.073Z,1.40
2023-01-30T05:56:13.168Z,1.02
2023-01-30T05:59:02.979Z,0.80
2023-01-30T06:01:51.669Z,0.65
2023-01-30T06:04:40.457Z,0.60
2023-01-30T06:07:29.194Z,0.70
2023-01-30T06:10:18.647Z,0.60
2023-01-30T06:13:10.991Z,0.50
2023-01-30T06:15:59.866Z,0.60
2023-01-30T06:18:48.744Z,0.57
2023-01-30T06:21:37.455Z,1.10
2023-01-30T06:24:26.259Z,1.70
2023-01-30T06:27:14.891Z,1.25
2023-01-30T06:30:05.737Z,2.08
2023-01-30T06:32:54.448Z,2.10
2023-01-30T06:35:43.772Z,1.90
2023-01-30T06:38:32.691Z,1.70
2023-01-30T06:41:21.501Z,1.33
2023-01-30T06:44:10.727Z,1.60
2023-01-30T06:47:03.266Z,1.38
2023-01-30T06:49:52.016Z,1.08
2023-01-30T06:52:43.088Z,1.80
2023-01-30T06:55:34.482Z,1.30
2023-01-30T06:58:23.223Z,3.05
2023-01-30T07:01:12.341Z,3.25
2023-01-30T07:04:02.487Z,2.75
2023-01-30T07:06:51.171Z,2.60
2023-01-30T07:09:39.805Z,2.63
2023-01-30T07:12:28.618Z,1.92
2023-01-30T07:15:17.661Z,2.25
2023-01-30T07:18:06.705Z,2.00
2023-01-30T07:20:56.676Z,2.15
2023-01-30T07:23:45.401Z,2.10
2023-01-30T07:26:34.115Z,1.55
2023-01-30T07:29:22.822Z,1.60
2023-01-30T07:32:16.463Z,1.55
2023-01-30T07:35:06.107Z,1.10
2023-01-30T07:37:56.069Z,1.55
2023-01-30T07:40:44.852Z,1.45
2023-01-30T07:43:33.499Z,1.55
2023-01-30T07:46:22.108Z,1.08
2023-01-30T07:49:11.157Z,1.10
2023-01-30T07:51:59.763Z,1.27
2023-01-30T07:54:49.651Z,1.30
2023-01-30T07:57:38.349Z,0.70
2023-01-30T08:00:27.725Z,0.80
2023-01-30T08:03:17.422Z,0.68
2023-01-30T08:06:06.187Z,0.57
2023-01-30T08:08:54.862Z,0.80
2023-01-30T08:11:44.909Z,0.70
2023-01-30T08:14:33.515Z,0.40
2023-01-30T08:17:22.232Z,0.60
2023-01-30T08:20:16.873Z,0.47
2023-01-30T08:23:06.088Z,0.68
2023-01-30T08:25:56.308Z,0.50
2023-01-30T08:28:46.353Z,0.32
2023-01-30T08:31:35.042Z,0.45
2023-01-30T08:34:23.686Z,0.40
2023-01-30T08:37:12.237Z,0.60
2023-01-30T08:40:00.889Z,0.57
2023-01-30T08:42:49.484Z,0.22
2023-01-30T08:45:39.426Z,0.30
2023-01-30T08:48:29.888Z,0.30
2023-01-30T08:51:20.581Z,0.25
2023-01-30T08:54:09.277Z,0.20
2023-01-30T08:56:57.925Z,0.73
2023-01-30T08:59:46.968Z,0.30
2023-01-30T09:02:37.246Z,0.50
2023-01-30T09:05:26.239Z,0.40
2023-01-30T09:08:15.001Z,0.30
2023-01-30T09:11:04.958Z,0.73
2023-01-30T09:13:53.559Z,0.20
2023-01-30T09:16:42.198Z,0.45
2023-01-30T09:19:32.165Z,0.73
2023-01-30T09:22:20.764Z,0.30
2023-01-30T09:25:10.022Z,0.40
2023-01-30T09:27:58.688Z,0.17
2023-01-30T09:30:47.391Z,0.32
2023-01-30T09:33:36.085Z,0.30
2023-01-30T09:36:26.116Z,0.28
2023-01-30T09:39:14.838Z,0.30
2023-01-30T09:42:29.788Z,0.40
2023-01-30T09:45:34.636Z,0.28
2023-01-30T09:48:26.773Z,0.20
2023-01-30T09:51:27.649Z,0.20
2023-01-30T09:54:21.886Z,0.10
2023-01-30T09:57:21.743Z,0.15
2023-01-30T10:00:15.624Z,0.30
2023-01-30T10:03:08.853Z,0.17
2023-01-30T10:06:00.868Z,0.10
2023-01-30T10:08:54.575Z,0.20
2023-01-30T10:11:52.535Z,0.20
2023-01-30T10:14:52.281Z,0.20
2023-01-30T10:17:52.994Z,0.25
2023-01-30T10:20:50.299Z,0.28
2023-01-30T10:23:52.951Z,0.20
2023-01-30T10:26:43.032Z,0.20
2023-01-30T10:29:33.492Z,0.20
2023-01-30T10:32:28.896Z,0.10
2023-01-30T10:35:19.710Z,0.10
2023-01-30T10:38:14.888Z,0.20
2023-01-30T10:41:09.754Z,0.08
2023-01-30T10:44:02.115Z,0.20
2023-01-30T10:47:07.310Z,0.20
2023-01-30T10:49:58.185Z,0.13
2023-01-30T10:52:54.334Z,0.10
2023-01-30T10:55:48.047Z,0.10
2023-01-30T10:58:42.218Z,0.20
2023-01-30T11:01:34.357Z,0.10
2023-01-30T11:04:29.663Z,0.30
2023-01-30T11:07:18.332Z,0.10
2023-01-30T11:10:16.716Z,0.10
2023-01-30T11:13:15.113Z,0.15
2023-01-30T11:16:08.502Z,0.10
2023-01-30T11:22:08.191Z,0.15
2023-01-30T11:25:03.724Z,0.00
2023-01-30T11:27:56.785Z,0.00
2023-01-30T11:30:46.621Z,0.20
2023-01-30T11:33:40.798Z,0.35
2023-01-30T11:36:30.864Z,0.20
2023-01-30T11:39:30.475Z,0.10
2023-01-30T11:42:21.165Z,0.10
2023-01-30T11:45:17.865Z,0.10
2023-01-30T11:48:31.479Z,0.50
2023-01-30T11:51:24.844Z,0.10
2023-01-30T11:54:16.638Z,0.10
2023-01-30T11:57:06.983Z,0.43
2023-01-30T11:59:57.447Z,0.40
2023-01-30T12:02:47.994Z,0.10
2023-01-30T12:05:42.350Z,0.20
2023-01-30T12:08:42.746Z,0.40
2023-01-30T12:11:34.341Z,0.15
2023-01-30T12:14:30.117Z,0.25
2023-01-30T12:17:23.001Z,0.20
2023-01-30T12:20:17.449Z,0.10
2023-01-30T12:23:12.959Z,0.20
2023-01-30T12:26:07.780Z,0.20
2023-01-30T12:29:00.344Z,0.20
2023-01-30T12:31:52.922Z,0.10
2023-01-30T12:34:42.292Z,0.20
2023-01-30T12:37:45.619Z,0.10
2023-01-30T12:40:41.597Z,0.10
2023-01-30T12:43:47.039Z,0.10
2023-01-30T12:46:46.353Z,0.22
2023-01-30T12:49:47.346Z,0.10
2023-01-30T12:52:47.123Z,0.03
2023-01-30T12:55:42.487Z,0.25
2023-01-30T12:58:34.625Z,0.10
2023-01-30T13:01:30.033Z,0.10
2023-01-30T13:04:26.558Z,0.10
2023-01-30T13:07:19.945Z,0.10
2023-01-30T13:10:16.482Z,0.10
2023-01-30T13:13:13.777Z,0.20
2023-01-30T13:16:07.479Z,0.20
2023-01-30T13:18:59.568Z,0.00
2023-01-30T13:21:51.877Z,0.10
2023-01-30T13:24:49.441Z,0.10
2023-01-30T13:27:40.788Z,0.10
2023-01-30T13:30:29.717Z,0.00
2023-01-30T13:33:22.694Z,0.10
2023-01-30T13:36:16.791Z,0.10
2023-01-30T13:39:07.755Z,0.10
2023-01-30T13:41:59.328Z,0.65
2023-01-30T13:44:50.122Z,0.10
2023-01-30T13:47:49.996Z,0.10
2023-01-30T13:50:47.239Z,2.10
2023-01-30T13:53:43.830Z,0.30
2023-01-30T13:56:41.703Z,0.30
2023-01-30T13:59:47.224Z,0.50
2023-01-30T14:02:35.898Z,0.20
2023-01-30T14:05:59.138Z,0.13
2023-01-30T14:08:59.108Z,0.20
2023-01-30T14:11:51.395Z,0.10
2023-01-30T14:14:41.355Z,0.10
2023-01-30T14:17:30.125Z,0.20
2023-01-30T14:20:21.868Z,0.17
2023-01-30T14:23:22.322Z,0.17
2023-01-30T14:26:12.386Z,0.22
2023-01-30T14:29:01.027Z,0.10
2023-01-30T14:31:51.016Z,0.10
2023-01-30T14:34:41.293Z,0.10
2023-01-30T14:38:06.436Z,0.05
2023-01-30T14:41:26.781Z,0.00
2023-01-30T14:44:49.108Z,0.30
2023-01-30T14:47:46.503Z,0.10
2023-01-30T14:50:35.917Z,0.20
2023-01-30T14:53:26.026Z,0.20
2023-01-30T14:56:14.636Z,0.10
2023-01-30T14:59:07.673Z,0.10
2023-01-30T15:02:02.537Z,0.20
2023-01-30T15:05:09.400Z,0.10
2023-01-30T15:08:04.718Z,0.00
2023-01-30T15:11:07.423Z,0.25
2023-01-30T15:14:01.372Z,0.30
2023-01-30T15:17:02.058Z,0.70
2023-01-30T15:20:15.015Z,3.13
2023-01-30T15:23:27.658Z,4.20
2023-01-30T15:26:25.729Z,3.95
2023-01-30T15:29:47.497Z,5.45
2023-01-30T15:32:38.289Z,7.97
2023-01-30T15:35:30.095Z,8.63
2023-01-30T15:38:27.749Z,8.05
2023-01-30T15:41:16.587Z,7.68
2023-01-30T15:44:27.505Z,8.52
2023-01-30T15:47:24.127Z,9.13
2023-01-30T15:50:14.378Z,10.90
2023-01-30T15:53:03.152Z,10.93
2023-01-30T15:55:52.313Z,9.10
2023-01-30T15:58:43.152Z,8.70
2023-01-30T16:01:32.359Z,9.88
2023-01-30T16:04:28.965Z,9.40
2023-01-30T16:07:26.563Z,8.45
2023-01-30T16:10:17.438Z,9.23
2023-01-30T16:13:06.085Z,8.07
2023-01-30T16:15:57.481Z,8.13
2023-01-30T16:18:49.352Z,7.35
2023-01-30T16:21:40.114Z,8.50
2023-01-30T16:24:32.711Z,6.88
2023-01-30T16:27:25.796Z,7.43
2023-01-30T16:30:15.090Z,6.68
2023-01-30T16:33:10.643Z,6.50
2023-01-30T16:35:59.248Z,6.32
2023-01-30T16:38:49.343Z,6.65
2023-01-30T16:41:41.056Z,6.65
2023-01-30T16:44:31.193Z,6.07
2023-01-30T16:47:25.171Z,6.80
2023-01-30T16:50:20.429Z,4.65
2023-01-30T16:53:15.573Z,5.47
2023-01-30T16:56:09.743Z,4.95
2023-01-30T16:59:01.180Z,5.13
2023-01-30T17:01:54.036Z,5.53
2023-01-30T17:04:52.935Z,4.43
2023-01-30T17:07:41.654Z,4.97
2023-01-30T17:10:52.439Z,4.68
2023-01-30T17:13:42.107Z,4.70
2023-01-30T17:16:35.918Z,4.35
2023-01-30T17:19:25.094Z,4.63
2023-01-30T17:22:20.645Z,3.67
2023-01-30T17:25:17.200Z,3.83
2023-01-30T17:28:07.633Z,4.28
2023-01-30T17:30:56.315Z,3.45
2023-01-30T17:33:46.361Z,4.30
2023-01-30T17:36:35.000Z,2.92
2023-01-30T17:39:26.732Z,3.28
2023-01-30T17:42:17.828Z,3.20
2023-01-30T17:45:07.276Z,3.55
2023-01-30T17:47:56.003Z,3.55
2023-01-30T17:50:46.032Z,3.50
2023-01-30T17:53:35.400Z,3.38
2023-01-30T17:56:25.447Z,3.28
2023-01-30T17:59:16.339Z,3.05
2023-01-30T18:02:05.225Z,3.25
2023-01-30T18:04:53.794Z,3.30
2023-01-30T18:07:43.890Z,3.28
2023-01-30T18:10:32.520Z,3.22
2023-01-30T18:13:21.506Z,2.30
2023-01-30T18:16:16.432Z,2.58
2023-01-30T18:19:08.605Z,2.88
2023-01-30T18:21:58.434Z,3.00
2023-01-30T18:24:48.566Z,2.35
2023-01-30T18:27:37.229Z,2.80
2023-01-30T18:30:25.809Z,2.65
2023-01-30T18:33:14.439Z,2.47
2023-01-30T18:36:06.272Z,2.10
2023-01-30T18:38:56.240Z,2.28
2023-01-30T18:41:46.326Z,2.60
2023-01-30T18:44:35.703Z,2.38
2023-01-30T18:47:26.492Z,1.67
2023-01-30T18:50:15.246Z,1.90
2023-01-30T18:53:04.057Z,2.33
2023-01-30T18:55:52.763Z,1.52
2023-01-30T18:58:44.876Z,1.98
2023-01-30T19:01:35.841Z,1.70
2023-01-30T19:04:24.532Z,1.88
2023-01-30T19:07:13.223Z,1.63
2023-01-30T19:10:01.939Z,1.95
2023-01-30T19:13:08.214Z,1.92
2023-01-30T19:16:00.812Z,1.50
2023-01-30T19:18:49.693Z,1.67
2023-01-30T19:21:39.835Z,2.03
2023-01-30T19:24:28.552Z,1.60
2023-01-30T19:27:18.983Z,1.30
2023-01-30T19:30:09.251Z,1.80
2023-01-30T19:32:59.359Z,1.60
2023-01-30T19:35:48.033Z,1.52
2023-01-30T19:38:36.663Z,1.05
2023-01-30T19:41:27.330Z,1.58
2023-01-30T19:44:15.945Z,0.80
2023-01-30T19:47:04.613Z,1.50
2023-01-30T19:49:55.883Z,1.25
2023-01-30T19:52:44.882Z,1.20
2023-01-30T19:55:35.079Z,1.30
2023-01-30T19:58:23.747Z,1.25
2023-01-30T20:01:13.948Z,1.00
2023-01-30T20:04:03.181Z,1.25
2023-01-30T20:06:53.156Z,1.45
2023-01-30T20:09:41.793Z,1.08
2023-01-30T20:12:31.897Z,1.85
2023-01-30T20:15:20.541Z,1.20
2023-01-30T20:18:09.173Z,0.93
2023-01-30T20:20:58.207Z,1.15
2023-01-30T20:23:48.916Z,0.90
2023-01-30T20:26:39.729Z,0.70
2023-01-30T20:29:28.447Z,1.05
2023-01-30T20:32:17.003Z,0.60
2023-01-30T20:35:05.973Z,1.17
2023-01-30T20:37:54.713Z,1.30
2023-01-30T20:40:47.219Z,0.63
2023-01-30T20:43:36.175Z,1.00
2023-01-30T20:46:27.103Z,1.20
2023-01-30T20:49:17.130Z,0.75
2023-01-30T20:52:05.874Z,0.70
2023-01-30T20:54:54.984Z,0.75
2023-01-30T20:57:45.345Z,0.70
2023-01-30T21:00:33.992Z,0.55
2023-01-30T21:03:25.414Z,0.70
2023-01-30T21:06:14.051Z,0.60
2023-01-30T21:09:25.399Z,1.10
2023-01-30T21:12:14.097Z,1.23
2023-01-30T21:15:04.190Z,1.33
2023-01-30T21:17:53.420Z,1.48
2023-01-30T21:20:44.472Z,1.90
2023-01-30T21:23:33.193Z,1.42
2023-01-30T21:26:23.166Z,1.35
2023-01-30T21:29:13.259Z,1.52
2023-01-30T21:32:03.357Z,1.50
2023-01-30T21:34:52.002Z,0.73
2023-01-30T21:37:58.017Z,0.77
2023-01-30T21:41:09.167Z,0.88
2023-01-30T21:43:58.298Z,1.00
2023-01-30T21:46:48.579Z,1.20
2023-01-30T21:49:40.499Z,0.60
2023-01-30T21:52:29.121Z,0.70
2023-01-30T21:55:18.175Z,0.80
2023-01-30T21:58:06.935Z,1.08
2023-01-30T22:00:55.571Z,1.00
2023-01-30T22:03:44.554Z,0.75
2023-01-30T22:06:34.914Z,0.45
2023-01-30T22:09:23.497Z,1.15
2023-01-30T22:12:12.198Z,0.60
2023-01-30T22:15:00.878Z,1.35
2023-01-30T22:17:49.585Z,0.70
2023-01-30T22:20:38.585Z,0.60
2023-01-30T22:23:32.878Z,0.73
2023-01-30T22:26:25.520Z,0.50
2023-01-30T22:29:18.013Z,0.50
2023-01-30T22:32:07.118Z,0.65
2023-01-30T22:34:56.258Z,0.55
2023-01-30T22:37:44.893Z,0.50
2023-01-30T22:40:37.165Z,0.82
2023-01-30T22:43:25.940Z,0.20
2023-01-30T22:46:16.017Z,0.50
2023-01-30T22:49:06.337Z,0.40
2023-01-30T22:51:54.891Z,0.45
2023-01-30T22:54:43.528Z,0.40
2023-01-30T22:57:33.571Z,0.17
2023-01-30T23:00:22.409Z,0.40
2023-01-30T23:03:11.106Z,0.40
2023-01-30T23:06:00.250Z,0.38
2023-01-30T23:08:50.040Z,0.50
2023-01-30T23:11:40.817Z,0.30
2023-01-30T23:14:31.282Z,0.55
2023-01-30T23:17:38.255Z,0.38
2023-01-30T23:20:26.859Z,1.00
2023-01-30T23:23:15.526Z,0.47
2023-01-30T23:26:04.281Z,0.55
2023-01-30T23:28:53.000Z,0.25
2023-01-30T23:31:44.563Z,0.20
2023-01-30T23:34:33.253Z,0.40
2023-01-30T23:37:42.798Z,0.40
2023-01-30T23:40:31.413Z,0.32
2023-01-30T23:43:20.895Z,0.40
2023-01-30T23:46:15.708Z,0.30
2023-01-30T23:49:08.081Z,0.47
2023-01-30T23:51:56.717Z,0.40
2023-01-30T23:54:45.392Z,0.50
2023-01-30T23:57:33.975Z,0.30
